createdAt,value
2022-11-30T00:00:27.366Z,31.85
2022-11-30T00:01:10.152Z,29.42
2022-11-30T00:01:51.831Z,29.75
2022-11-30T00:02:33.575Z,31.20
2022-11-30T00:03:15.896Z,28.92
2022-11-30T00:03:58.012Z,30.67
2022-11-30T00:04:39.691Z,30.08
2022-11-30T00:05:23.828Z,30.75
2022-11-30T00:06:07.840Z,28.58
2022-11-30T00:06:49.492Z,29.83
2022-11-30T00:07:31.650Z,30.30
2022-11-30T00:08:13.416Z,29.80
2022-11-30T00:08:58.530Z,29.35
2022-11-30T00:09:40.163Z,29.92
2022-11-30T00:10:22.566Z,30.17
2022-11-30T00:11:17.920Z,30.77
2022-11-30T00:11:59.595Z,29.58
2022-11-30T00:12:44.772Z,30.83
2022-11-30T00:13:26.455Z,30.08
2022-11-30T00:14:08.135Z,29.35
2022-11-30T00:14:49.871Z,30.40
2022-11-30T00:15:31.976Z,30.42
2022-11-30T00:16:14.127Z,30.10
2022-11-30T00:16:55.892Z,29.30
2022-11-30T00:17:37.663Z,29.75
2022-11-30T00:18:19.357Z,27.92
2022-11-30T00:19:01.078Z,29.55
2022-11-30T00:19:43.048Z,29.48
2022-11-30T00:20:25.284Z,28.17
2022-11-30T00:21:08.779Z,29.70
2022-11-30T00:21:50.639Z,29.95
2022-11-30T00:22:32.362Z,29.70
2022-11-30T00:23:14.051Z,28.00
2022-11-30T00:23:55.720Z,28.15
2022-11-30T00:24:37.467Z,29.58
2022-11-30T00:25:19.154Z,28.85
2022-11-30T00:26:05.062Z,28.83
2022-11-30T00:26:46.828Z,29.58
2022-11-30T00:27:29.069Z,29.90
2022-11-30T00:28:10.704Z,30.23
2022-11-30T00:28:52.479Z,29.33
2022-11-30T00:29:34.158Z,29.45
2022-11-30T00:30:15.988Z,28.20
2022-11-30T00:31:01.951Z,31.63
2022-11-30T00:31:43.793Z,31.75
2022-11-30T00:32:26.432Z,30.10
2022-11-30T00:33:08.099Z,30.65
2022-11-30T00:33:49.850Z,31.48
2022-11-30T00:34:31.478Z,29.80
2022-11-30T00:35:13.122Z,28.73
2022-11-30T00:36:22.593Z,29.05
2022-11-30T00:37:04.220Z,30.08
2022-11-30T00:37:45.900Z,30.83
2022-11-30T00:38:27.680Z,31.23
2022-11-30T00:39:09.320Z,29.20
2022-11-30T00:39:51.206Z,29.40
2022-11-30T00:40:32.931Z,31.33
2022-11-30T00:41:15.207Z,29.45
2022-11-30T00:41:56.913Z,31.23
2022-11-30T00:42:38.637Z,31.08
2022-11-30T00:43:20.381Z,31.15
2022-11-30T00:44:02.077Z,33.53
2022-11-30T00:44:43.910Z,32.97
2022-11-30T00:45:25.766Z,32.38
2022-11-30T00:46:10.809Z,31.33
2022-11-30T00:46:52.474Z,32.08
2022-11-30T00:47:34.153Z,29.92
2022-11-30T00:48:15.855Z,30.75
2022-11-30T00:48:57.541Z,31.33
2022-11-30T00:49:39.237Z,31.20
2022-11-30T00:50:20.886Z,31.23
2022-11-30T00:51:02.552Z,31.33
2022-11-30T00:51:44.280Z,33.20
2022-11-30T00:52:25.956Z,33.80
2022-11-30T00:53:07.654Z,33.72
2022-11-30T00:53:49.382Z,33.67
2022-11-30T00:54:31.036Z,33.45
2022-11-30T00:55:12.734Z,32.42
2022-11-30T00:55:54.382Z,30.50
2022-11-30T00:56:36.096Z,31.58
2022-11-30T00:57:17.757Z,32.75
2022-11-30T00:58:03.043Z,31.27
2022-11-30T00:58:47.785Z,32.10
2022-11-30T00:59:29.433Z,31.45
2022-11-30T01:00:11.497Z,32.83
2022-11-30T01:00:53.672Z,32.22
2022-11-30T01:01:35.786Z,34.47
2022-11-30T01:02:17.492Z,32.80
2022-11-30T01:02:59.358Z,32.63
2022-11-30T01:03:41.055Z,32.22
2022-11-30T01:04:22.684Z,32.47
2022-11-30T01:05:04.892Z,32.58
2022-11-30T01:05:49.621Z,33.22
2022-11-30T01:06:31.751Z,33.92
2022-11-30T01:07:13.483Z,32.67
2022-11-30T01:07:55.742Z,31.63
2022-11-30T01:08:37.629Z,32.42
2022-11-30T01:09:19.247Z,33.08
2022-11-30T01:10:00.877Z,32.78
2022-11-30T01:10:44.411Z,33.03
2022-11-30T01:11:28.933Z,32.17
2022-11-30T01:12:19.286Z,32.90
2022-11-30T01:13:01.755Z,34.28
2022-11-30T01:13:43.526Z,33.05
2022-11-30T01:14:25.421Z,32.58
2022-11-30T01:15:07.652Z,32.55
2022-11-30T01:15:49.348Z,33.70
2022-11-30T01:16:33.005Z,33.70
2022-11-30T01:17:15.050Z,33.22
2022-11-30T01:17:58.711Z,33.08
2022-11-30T01:18:40.412Z,32.47
2022-11-30T01:19:22.072Z,33.88
2022-11-30T01:20:05.019Z,33.13
2022-11-30T01:20:46.787Z,31.77
2022-11-30T01:21:28.849Z,34.35
2022-11-30T01:22:10.533Z,35.53
2022-11-30T01:22:52.162Z,34.55
2022-11-30T01:23:33.836Z,33.25
2022-11-30T01:24:15.446Z,31.58
2022-11-30T01:24:57.095Z,31.23
2022-11-30T01:25:39.460Z,31.58
2022-11-30T01:26:22.023Z,31.95
2022-11-30T01:27:03.727Z,30.55
2022-11-30T01:27:49.083Z,30.40
2022-11-30T01:28:30.769Z,31.30
2022-11-30T01:29:12.397Z,31.25
2022-11-30T01:29:54.075Z,32.13
2022-11-30T01:30:35.732Z,31.58
2022-11-30T01:31:17.627Z,30.60
2022-11-30T01:31:59.466Z,31.05
2022-11-30T01:32:41.156Z,30.77
2022-11-30T01:33:22.799Z,30.27
2022-11-30T01:34:04.535Z,29.55
2022-11-30T01:34:46.531Z,31.00
2022-11-30T01:35:28.457Z,31.73
2022-11-30T01:36:14.118Z,29.02
2022-11-30T01:36:55.809Z,31.20
2022-11-30T01:37:37.428Z,32.85
2022-11-30T01:38:19.072Z,32.13
2022-11-30T01:39:01.129Z,32.72
2022-11-30T01:39:42.789Z,34.00
2022-11-30T01:40:24.495Z,32.05
2022-11-30T01:41:07.592Z,33.05
2022-11-30T01:41:49.252Z,33.05
2022-11-30T01:42:32.888Z,34.67
2022-11-30T01:43:14.751Z,34.55
2022-11-30T01:44:19.788Z,33.60
2022-11-30T01:45:04.506Z,34.28
2022-11-30T01:45:49.291Z,34.40
2022-11-30T01:46:45.858Z,33.83
2022-11-30T01:47:32.291Z,34.95
2022-11-30T01:48:13.983Z,37.40
2022-11-30T01:48:59.784Z,35.70
2022-11-30T01:49:55.910Z,34.85
2022-11-30T01:50:37.788Z,34.25
2022-11-30T01:51:19.613Z,35.20
2022-11-30T01:52:05.127Z,35.03
2022-11-30T01:52:56.506Z,36.08
2022-11-30T01:53:38.291Z,35.20
2022-11-30T01:54:24.914Z,35.08
2022-11-30T01:55:42.437Z,35.38
2022-11-30T01:56:24.219Z,36.65
2022-11-30T01:57:13.399Z,35.75
2022-11-30T01:58:11.709Z,34.33
2022-11-30T01:58:53.686Z,34.92
2022-11-30T01:59:35.881Z,35.33
2022-11-30T02:00:18.474Z,34.88
2022-11-30T02:01:00.337Z,35.42
2022-11-30T02:01:42.126Z,37.38
2022-11-30T02:02:42.677Z,36.53
2022-11-30T02:03:24.323Z,36.75
2022-11-30T02:04:14.698Z,37.63
2022-11-30T02:04:56.584Z,37.90
2022-11-30T02:05:40.555Z,37.55
2022-11-30T02:06:25.306Z,36.65
2022-11-30T02:07:08.529Z,35.97
2022-11-30T02:07:50.370Z,35.55
2022-11-30T02:08:33.212Z,34.55
2022-11-30T02:09:16.448Z,35.50
2022-11-30T02:09:58.122Z,36.58
2022-11-30T02:10:43.564Z,36.00
2022-11-30T02:11:27.631Z,37.45
2022-11-30T02:12:20.468Z,35.45
2022-11-30T02:13:16.108Z,35.20
2022-11-30T02:14:25.445Z,36.47
2022-11-30T02:15:16.901Z,35.63
2022-11-30T02:16:10.567Z,36.42
2022-11-30T02:17:16.066Z,36.30
2022-11-30T02:18:20.206Z,33.95
2022-11-30T02:19:05.294Z,36.25
2022-11-30T02:20:13.821Z,34.33
2022-11-30T02:21:17.621Z,34.53
2022-11-30T02:22:12.764Z,36.75
2022-11-30T02:23:41.887Z,36.83
2022-11-30T02:24:43.703Z,34.45
2022-11-30T02:26:07.945Z,33.30
2022-11-30T02:27:13.987Z,35.03
2022-11-30T02:28:05.215Z,35.78
2022-11-30T02:29:10.620Z,34.88
2022-11-30T02:30:03.365Z,34.85
2022-11-30T02:30:48.987Z,33.90
2022-11-30T02:31:40.169Z,35.05
2022-11-30T02:32:25.603Z,35.13
2022-11-30T02:33:17.106Z,33.92
2022-11-30T02:34:00.470Z,33.95
2022-11-30T02:34:42.891Z,34.53
2022-11-30T02:35:32.636Z,34.10
2022-11-30T02:36:14.626Z,35.35
2022-11-30T02:36:58.143Z,34.10
2022-11-30T02:37:40.265Z,32.08
2022-11-30T02:38:23.927Z,33.88
2022-11-30T02:39:07.107Z,33.47
2022-11-30T02:39:48.760Z,33.13
2022-11-30T02:40:30.923Z,33.85
2022-11-30T02:41:12.983Z,33.65
2022-11-30T02:41:54.624Z,32.13
2022-11-30T02:42:36.568Z,32.13
2022-11-30T02:43:21.108Z,31.17
2022-11-30T02:44:04.487Z,32.40
2022-11-30T02:44:50.010Z,31.88
2022-11-30T02:45:37.959Z,32.88
2022-11-30T02:46:31.408Z,32.95
2022-11-30T02:47:19.663Z,31.63
2022-11-30T02:48:12.337Z,31.48
2022-11-30T02:49:13.977Z,31.38
2022-11-30T02:50:01.798Z,31.47
2022-11-30T02:50:50.456Z,30.88
2022-11-30T02:51:36.206Z,30.63
2022-11-30T02:52:21.491Z,31.30
2022-11-30T02:53:03.703Z,31.35
2022-11-30T02:53:46.567Z,30.67
2022-11-30T02:54:28.194Z,31.73
2022-11-30T02:55:11.796Z,31.80
2022-11-30T02:55:54.537Z,31.33
2022-11-30T02:56:36.410Z,31.00
2022-11-30T02:57:18.040Z,32.22
2022-11-30T02:57:59.711Z,31.92
2022-11-30T02:58:41.500Z,31.17
2022-11-30T02:59:23.600Z,31.00
2022-11-30T03:00:08.016Z,31.98
2022-11-30T03:00:50.266Z,30.20
2022-11-30T03:01:32.054Z,30.10
2022-11-30T03:02:13.825Z,28.15
2022-11-30T03:02:55.532Z,27.25
2022-11-30T03:03:37.299Z,27.00
2022-11-30T03:04:18.952Z,29.40
2022-11-30T03:05:00.609Z,28.77
2022-11-30T03:05:42.254Z,27.10
2022-11-30T03:06:23.914Z,27.75
2022-11-30T03:07:06.009Z,27.52
2022-11-30T03:07:47.719Z,29.13
2022-11-30T03:08:29.384Z,28.08
2022-11-30T03:09:11.024Z,29.13
2022-11-30T03:09:52.680Z,28.02
2022-11-30T03:10:34.359Z,28.65
2022-11-30T03:11:15.977Z,29.00
2022-11-30T03:11:58.060Z,27.85
2022-11-30T03:12:39.704Z,25.88
2022-11-30T03:13:21.466Z,26.77
2022-11-30T03:14:03.977Z,27.80
2022-11-30T03:14:45.926Z,28.33
2022-11-30T03:15:27.952Z,27.17
2022-11-30T03:16:12.020Z,27.50
2022-11-30T03:16:53.763Z,26.90
2022-11-30T03:17:35.384Z,26.42
2022-11-30T03:18:17.004Z,27.60
2022-11-30T03:18:59.140Z,27.52
2022-11-30T03:19:41.323Z,26.40
2022-11-30T03:20:22.972Z,26.60
2022-11-30T03:21:09.472Z,27.08
2022-11-30T03:21:51.104Z,25.42
2022-11-30T03:22:32.767Z,26.30
2022-11-30T03:23:14.871Z,27.77
2022-11-30T03:23:56.615Z,28.02
2022-11-30T03:24:38.693Z,26.55
2022-11-30T03:25:20.420Z,28.40
2022-11-30T03:26:02.629Z,28.27
2022-11-30T03:26:44.432Z,27.55
2022-11-30T03:27:26.142Z,28.20
2022-11-30T03:28:07.830Z,28.30
2022-11-30T03:28:49.532Z,27.98
2022-11-30T03:29:31.209Z,29.00
2022-11-30T03:30:13.172Z,28.25
2022-11-30T03:30:54.926Z,29.98
2022-11-30T03:31:36.610Z,30.20
2022-11-30T03:32:19.062Z,30.92
2022-11-30T03:33:00.732Z,28.95
2022-11-30T03:33:42.998Z,29.15
2022-11-30T03:34:26.518Z,29.50
2022-11-30T03:35:08.688Z,28.77
2022-11-30T03:36:00.087Z,29.45
2022-11-30T03:36:41.736Z,32.03
2022-11-30T03:37:23.366Z,31.75
2022-11-30T03:38:05.020Z,31.58
2022-11-30T03:38:47.625Z,30.88
2022-11-30T03:39:29.294Z,30.77
2022-11-30T03:40:11.511Z,31.02
2022-11-30T03:41:03.895Z,30.30
2022-11-30T03:41:45.521Z,30.20
2022-11-30T03:42:27.606Z,30.67
2022-11-30T03:43:09.319Z,31.13
2022-11-30T03:43:50.992Z,31.85
2022-11-30T03:44:32.687Z,31.20
2022-11-30T03:45:14.470Z,30.13
2022-11-30T03:45:56.379Z,29.83
2022-11-30T03:46:38.074Z,31.02
2022-11-30T03:47:19.729Z,30.98
2022-11-30T03:48:01.371Z,31.20
2022-11-30T03:48:43.420Z,31.67
2022-11-30T03:49:25.071Z,30.63
2022-11-30T03:50:07.553Z,31.23
2022-11-30T03:50:50.291Z,33.35
2022-11-30T03:51:31.968Z,33.45
2022-11-30T03:52:13.622Z,31.40
2022-11-30T03:52:55.280Z,31.92
2022-11-30T03:53:37.263Z,31.90
2022-11-30T03:54:18.884Z,32.95
2022-11-30T03:55:00.537Z,32.40
2022-11-30T03:55:42.252Z,33.25
2022-11-30T03:56:24.307Z,34.00
2022-11-30T03:57:05.974Z,34.88
2022-11-30T03:57:47.696Z,33.15
2022-11-30T03:58:29.539Z,35.20
2022-11-30T03:59:11.629Z,35.00
2022-11-30T03:59:53.264Z,34.03
2022-11-30T04:00:35.314Z,33.08
2022-11-30T04:01:22.202Z,33.67
2022-11-30T04:02:04.039Z,34.42
2022-11-30T04:02:45.758Z,37.22
2022-11-30T04:03:27.658Z,34.28
2022-11-30T04:04:09.780Z,32.65
2022-11-30T04:04:52.559Z,35.03
2022-11-30T04:05:34.216Z,36.72
2022-11-30T04:06:16.697Z,35.92
2022-11-30T04:06:58.380Z,36.17
2022-11-30T04:07:40.100Z,35.05
2022-11-30T04:08:22.322Z,34.97
2022-11-30T04:09:04.166Z,36.17
2022-11-30T04:09:45.829Z,35.58
2022-11-30T04:10:27.540Z,35.58
2022-11-30T04:11:10.119Z,37.08
2022-11-30T04:11:51.783Z,36.47
2022-11-30T04:12:33.396Z,37.05
2022-11-30T04:13:15.027Z,35.95
2022-11-30T04:13:57.097Z,37.28
2022-11-30T04:14:38.738Z,37.58
2022-11-30T04:15:20.451Z,36.30
2022-11-30T04:16:02.568Z,37.50
2022-11-30T04:16:44.251Z,36.42
2022-11-30T04:17:25.899Z,35.65
2022-11-30T04:18:07.524Z,37.10
2022-11-30T04:18:49.277Z,35.70
2022-11-30T04:19:30.925Z,34.25
2022-11-30T04:20:12.760Z,35.72
2022-11-30T04:20:56.246Z,35.42
2022-11-30T04:21:37.923Z,36.03
2022-11-30T04:22:19.554Z,36.60
2022-11-30T04:23:01.600Z,38.97
2022-11-30T04:23:43.228Z,37.15
2022-11-30T04:24:24.871Z,39.47
2022-11-30T04:25:07.051Z,36.78
2022-11-30T04:25:49.262Z,37.50
2022-11-30T04:26:30.883Z,38.17
2022-11-30T04:27:12.514Z,37.95
2022-11-30T04:27:54.185Z,39.28
2022-11-30T04:28:36.006Z,38.50
2022-11-30T04:29:17.634Z,38.38
2022-11-30T04:29:59.293Z,37.25
2022-11-30T04:30:41.692Z,37.88
2022-11-30T04:31:23.478Z,39.60
2022-11-30T04:32:05.303Z,40.38
2022-11-30T04:32:46.961Z,38.85
2022-11-30T04:33:29.044Z,39.10
2022-11-30T04:34:10.687Z,39.88
2022-11-30T04:34:52.299Z,40.53
2022-11-30T04:35:34.643Z,39.03
2022-11-30T04:36:19.732Z,38.35
2022-11-30T04:37:01.488Z,40.30
2022-11-30T04:37:43.668Z,38.88
2022-11-30T04:38:26.574Z,40.67
2022-11-30T04:39:08.215Z,39.55
2022-11-30T04:39:49.945Z,40.50
2022-11-30T04:40:31.628Z,40.38
2022-11-30T04:41:13.720Z,38.03
2022-11-30T04:41:55.429Z,38.00
2022-11-30T04:42:37.503Z,38.67
2022-11-30T04:43:19.659Z,39.05
2022-11-30T04:44:01.371Z,39.97
2022-11-30T04:44:42.992Z,39.65
2022-11-30T04:45:24.633Z,39.22
2022-11-30T04:46:06.345Z,40.75
2022-11-30T04:46:48.068Z,39.28
2022-11-30T04:47:29.797Z,38.15
2022-11-30T04:48:11.748Z,38.22
2022-11-30T04:48:53.351Z,40.50
2022-11-30T04:49:34.979Z,40.10
2022-11-30T04:50:16.680Z,36.70
2022-11-30T04:51:06.214Z,37.65
2022-11-30T04:51:47.883Z,38.50
2022-11-30T04:52:29.539Z,37.55
2022-11-30T04:53:11.580Z,36.60
2022-11-30T04:53:53.227Z,36.65
2022-11-30T04:54:34.864Z,38.72
2022-11-30T04:55:19.411Z,38.20
2022-11-30T04:56:11.185Z,38.38
2022-11-30T04:56:52.861Z,38.90
2022-11-30T04:57:34.552Z,39.50
2022-11-30T04:58:16.584Z,37.45
2022-11-30T04:58:58.209Z,38.70
2022-11-30T04:59:39.843Z,39.17
2022-11-30T05:00:22.189Z,38.08
2022-11-30T05:01:03.901Z,37.08
2022-11-30T05:01:45.660Z,36.58
2022-11-30T05:02:30.086Z,35.75
2022-11-30T05:03:11.750Z,37.58
2022-11-30T05:03:53.571Z,36.72
2022-11-30T05:04:35.288Z,36.38
2022-11-30T05:05:17.174Z,35.65
2022-11-30T05:05:58.863Z,36.03
2022-11-30T05:06:40.523Z,34.63
2022-11-30T05:07:22.232Z,35.25
2022-11-30T05:08:03.972Z,36.53
2022-11-30T05:08:45.720Z,35.70
2022-11-30T05:09:27.432Z,34.33
2022-11-30T05:10:09.667Z,33.60
2022-11-30T05:10:55.155Z,34.55
2022-11-30T05:11:36.948Z,34.88
2022-11-30T05:12:18.674Z,35.42
2022-11-30T05:13:00.330Z,33.97
2022-11-30T05:13:41.989Z,32.33
2022-11-30T05:14:23.746Z,30.85
2022-11-30T05:15:06.022Z,31.50
2022-11-30T05:15:47.885Z,29.67
2022-11-30T05:16:29.706Z,31.00
2022-11-30T05:17:11.438Z,29.98
2022-11-30T05:17:53.115Z,29.77
2022-11-30T05:18:34.800Z,31.45
2022-11-30T05:19:16.926Z,32.53
2022-11-30T05:19:58.622Z,33.53
2022-11-30T05:20:40.258Z,31.95
2022-11-30T05:21:22.084Z,29.63
2022-11-30T05:22:03.849Z,32.05
2022-11-30T05:22:45.502Z,31.15
2022-11-30T05:23:27.655Z,32.38
2022-11-30T05:24:09.386Z,32.05
2022-11-30T05:24:51.047Z,31.10
2022-11-30T05:25:32.718Z,30.50
2022-11-30T05:26:15.465Z,29.85
2022-11-30T05:26:57.128Z,31.13
2022-11-30T05:27:39.129Z,31.17
2022-11-30T05:28:20.931Z,30.08
2022-11-30T05:29:04.138Z,30.13
2022-11-30T05:29:45.839Z,30.75
2022-11-30T05:30:27.483Z,30.77
2022-11-30T05:31:09.268Z,31.45
2022-11-30T05:31:51.073Z,30.55
2022-11-30T05:32:32.883Z,30.17
2022-11-30T05:33:14.631Z,30.13
2022-11-30T05:33:56.367Z,31.25
2022-11-30T05:34:50.195Z,30.73
2022-11-30T05:35:32.801Z,30.20
2022-11-30T05:36:14.463Z,28.55
2022-11-30T05:36:56.142Z,30.95
2022-11-30T05:37:37.883Z,31.48
2022-11-30T05:38:19.606Z,31.75
2022-11-30T05:39:01.252Z,34.20
2022-11-30T05:39:42.974Z,33.30
2022-11-30T05:40:25.812Z,33.45
2022-11-30T05:41:07.504Z,34.35
2022-11-30T05:41:49.169Z,36.17
2022-11-30T05:42:30.857Z,35.15
2022-11-30T05:43:12.786Z,35.70
2022-11-30T05:43:54.516Z,35.17
2022-11-30T05:44:36.199Z,35.85
2022-11-30T05:45:17.863Z,35.38
2022-11-30T05:46:01.175Z,37.92
2022-11-30T05:46:42.966Z,37.20
2022-11-30T05:47:24.893Z,36.10
2022-11-30T05:48:06.890Z,35.53
2022-11-30T05:48:48.659Z,36.75
2022-11-30T05:49:30.336Z,37.67
2022-11-30T05:50:11.998Z,35.92
2022-11-30T05:50:53.677Z,37.45
2022-11-30T05:51:35.380Z,34.28
2022-11-30T05:52:17.166Z,35.13
2022-11-30T05:53:00.779Z,35.43
2022-11-30T05:53:43.971Z,33.72
2022-11-30T05:54:25.658Z,33.75
2022-11-30T05:55:07.630Z,33.67
2022-11-30T05:55:49.300Z,33.40
2022-11-30T05:56:30.977Z,35.47
2022-11-30T05:57:12.676Z,35.25
2022-11-30T05:57:54.606Z,34.55
2022-11-30T05:58:37.847Z,31.83
2022-11-30T05:59:19.526Z,33.92
2022-11-30T06:00:01.647Z,36.00
2022-11-30T06:00:43.532Z,35.22
2022-11-30T06:01:28.180Z,35.95
2022-11-30T06:02:10.024Z,34.80
2022-11-30T06:02:58.616Z,34.92
2022-11-30T06:03:40.462Z,33.38
2022-11-30T06:04:22.526Z,33.70
2022-11-30T06:05:04.506Z,34.00
2022-11-30T06:05:46.155Z,33.65
2022-11-30T06:06:27.834Z,34.80
2022-11-30T06:07:11.890Z,33.72
2022-11-30T06:07:54.193Z,33.78
2022-11-30T06:08:35.917Z,34.03
2022-11-30T06:09:17.985Z,34.97
2022-11-30T06:09:59.684Z,34.20
2022-11-30T06:10:41.352Z,33.33
2022-11-30T06:11:23.461Z,34.33
2022-11-30T06:12:05.497Z,35.53
2022-11-30T06:12:48.468Z,34.83
2022-11-30T06:13:32.527Z,33.80
2022-11-30T06:14:14.206Z,33.58
2022-11-30T06:14:55.882Z,34.67
2022-11-30T06:15:38.562Z,34.50
2022-11-30T06:16:20.299Z,33.72
2022-11-30T06:17:02.182Z,33.30
2022-11-30T06:17:43.830Z,32.58
2022-11-30T06:18:25.514Z,33.35
2022-11-30T06:19:07.550Z,33.35
2022-11-30T06:19:49.250Z,33.33
2022-11-30T06:20:31.019Z,32.10
2022-11-30T06:21:13.014Z,33.78
2022-11-30T06:21:54.669Z,31.88
2022-11-30T06:22:36.320Z,31.70
2022-11-30T06:23:18.042Z,33.20
2022-11-30T06:23:59.872Z,32.70
2022-11-30T06:24:41.605Z,32.13
2022-11-30T06:25:23.636Z,33.10
2022-11-30T06:26:07.677Z,31.75
2022-11-30T06:26:49.315Z,31.23
2022-11-30T06:27:32.015Z,32.08
2022-11-30T06:28:13.891Z,32.95
2022-11-30T06:28:55.572Z,31.70
2022-11-30T06:29:37.242Z,31.42
2022-11-30T06:30:19.454Z,30.85
2022-11-30T06:31:02.218Z,31.15
2022-11-30T06:31:43.955Z,30.65
2022-11-30T06:32:25.656Z,30.23
2022-11-30T06:33:07.345Z,32.45
2022-11-30T06:33:49.130Z,31.05
2022-11-30T06:34:32.031Z,30.48
2022-11-30T06:35:14.302Z,31.67
2022-11-30T06:35:56.360Z,29.30
2022-11-30T06:36:38.231Z,30.30
2022-11-30T06:37:19.948Z,29.42
2022-11-30T06:38:01.672Z,28.95
2022-11-30T06:38:43.310Z,28.50
2022-11-30T06:39:49.943Z,28.73
2022-11-30T06:40:27.505Z,31.88
2022-11-30T06:41:10.394Z,31.00
2022-11-30T06:41:54.623Z,29.95
2022-11-30T06:42:37.293Z,28.73
2022-11-30T06:43:19.020Z,29.58
2022-11-30T06:44:00.659Z,29.70
2022-11-30T06:44:42.339Z,29.00
2022-11-30T06:45:23.978Z,28.67
2022-11-30T06:46:07.031Z,31.17
2022-11-30T06:46:48.845Z,29.05
2022-11-30T06:47:30.559Z,29.23
2022-11-30T06:48:13.220Z,28.02
2022-11-30T06:48:55.536Z,27.83
2022-11-30T06:49:37.471Z,29.40
2022-11-30T06:50:19.108Z,29.52
2022-11-30T06:51:04.812Z,29.60
2022-11-30T06:51:46.454Z,30.25
2022-11-30T06:52:32.775Z,28.77
2022-11-30T06:53:14.411Z,30.98
2022-11-30T06:53:56.163Z,29.75
2022-11-30T06:54:37.808Z,28.40
2022-11-30T06:55:19.542Z,29.60
2022-11-30T06:56:09.911Z,28.70
2022-11-30T06:56:52.230Z,28.42
2022-11-30T06:57:34.875Z,28.73
2022-11-30T06:58:16.581Z,28.70
2022-11-30T06:58:58.247Z,27.30
2022-11-30T06:59:43.385Z,28.10
2022-11-30T07:00:25.058Z,29.40
2022-11-30T07:01:09.640Z,28.15
2022-11-30T07:01:51.382Z,28.08
2022-11-30T07:02:33.046Z,29.48
2022-11-30T07:03:15.049Z,27.67
2022-11-30T07:03:56.733Z,27.92
2022-11-30T07:04:38.432Z,28.10
2022-11-30T07:05:20.059Z,28.15
2022-11-30T07:06:05.990Z,28.90
2022-11-30T07:06:47.646Z,28.50
2022-11-30T07:07:30.457Z,28.15
2022-11-30T07:08:14.062Z,28.55
2022-11-30T07:08:55.728Z,26.88
2022-11-30T07:09:37.606Z,27.35
2022-11-30T07:10:20.399Z,27.20
2022-11-30T07:11:02.507Z,26.27
2022-11-30T07:11:44.300Z,26.30
2022-11-30T07:12:26.384Z,27.65
2022-11-30T07:13:16.237Z,29.40
2022-11-30T07:13:57.962Z,26.65
2022-11-30T07:14:39.613Z,27.55
2022-11-30T07:15:21.276Z,26.85
2022-11-30T07:16:05.362Z,26.27
2022-11-30T07:16:47.118Z,25.58
2022-11-30T07:17:28.830Z,25.60
2022-11-30T07:18:10.944Z,26.77
2022-11-30T07:18:52.606Z,27.02
2022-11-30T07:19:34.511Z,26.83
2022-11-30T07:20:16.231Z,26.60
2022-11-30T07:21:02.443Z,24.60
2022-11-30T07:21:44.848Z,24.98
2022-11-30T07:22:26.522Z,25.17
2022-11-30T07:23:27.137Z,24.88
2022-11-30T07:24:29.903Z,24.98
2022-11-30T07:25:30.439Z,26.90
2022-11-30T07:26:12.510Z,24.25
2022-11-30T07:26:54.245Z,25.25
2022-11-30T07:27:35.977Z,25.25
2022-11-30T07:28:17.600Z,25.65
2022-11-30T07:28:59.398Z,24.77
2022-11-30T07:29:41.034Z,25.00
2022-11-30T07:30:22.810Z,25.02
2022-11-30T07:31:16.618Z,25.05
2022-11-30T07:31:58.567Z,26.30
2022-11-30T07:32:40.225Z,25.23
2022-11-30T07:33:21.960Z,25.05
2022-11-30T07:34:06.983Z,23.98
2022-11-30T07:34:48.864Z,24.80
2022-11-30T07:35:30.694Z,25.30
2022-11-30T07:36:12.701Z,26.50
2022-11-30T07:36:54.360Z,26.08
2022-11-30T07:37:35.995Z,23.33
2022-11-30T07:38:17.701Z,25.30
2022-11-30T07:38:59.662Z,26.05
2022-11-30T07:39:41.384Z,25.15
2022-11-30T07:40:23.031Z,25.60
2022-11-30T07:41:04.948Z,25.30
2022-11-30T07:41:46.639Z,23.98
2022-11-30T07:42:28.319Z,23.42
2022-11-30T07:43:09.954Z,24.52
2022-11-30T07:43:51.636Z,25.15
2022-11-30T07:44:33.511Z,24.45
2022-11-30T07:45:15.274Z,26.48
2022-11-30T07:45:57.292Z,25.50
2022-11-30T07:46:39.098Z,24.85
2022-11-30T07:47:20.741Z,25.20
2022-11-30T07:48:02.425Z,26.00
2022-11-30T07:48:44.979Z,25.83
2022-11-30T07:49:26.620Z,26.00
2022-11-30T07:50:08.770Z,23.58
2022-11-30T07:50:50.686Z,21.80
2022-11-30T07:51:32.488Z,23.27
2022-11-30T07:52:14.180Z,23.95
2022-11-30T07:52:55.808Z,24.45
2022-11-30T07:53:37.518Z,23.52
2022-11-30T07:54:19.239Z,22.98
2022-11-30T07:55:01.164Z,25.13
2022-11-30T07:55:43.617Z,24.73
2022-11-30T07:56:26.374Z,24.67
2022-11-30T07:57:08.022Z,25.25
2022-11-30T07:57:49.688Z,23.83
2022-11-30T07:58:31.824Z,23.38
2022-11-30T07:59:13.499Z,24.13
2022-11-30T07:59:55.158Z,24.08
2022-11-30T08:00:38.149Z,24.50
2022-11-30T08:01:22.384Z,25.42
2022-11-30T08:02:04.294Z,24.42
2022-11-30T08:02:49.638Z,25.17
2022-11-30T08:03:36.586Z,25.95
2022-11-30T08:04:18.883Z,24.98
2022-11-30T08:05:00.644Z,27.27
2022-11-30T08:05:42.314Z,26.33
2022-11-30T08:06:29.293Z,26.25
2022-11-30T08:07:10.988Z,25.75
2022-11-30T08:07:54.245Z,26.85
2022-11-30T08:08:38.621Z,25.60
2022-11-30T08:09:21.014Z,25.08
2022-11-30T08:10:02.965Z,25.77
2022-11-30T08:10:44.643Z,25.98
2022-11-30T08:11:28.779Z,24.35
2022-11-30T08:12:10.515Z,23.98
2022-11-30T08:12:52.904Z,24.48
2022-11-30T08:13:34.889Z,24.80
2022-11-30T08:14:16.565Z,25.05
2022-11-30T08:15:19.215Z,25.45
2022-11-30T08:16:12.354Z,26.33
2022-11-30T08:16:54.126Z,25.77
2022-11-30T08:17:35.823Z,25.00
2022-11-30T08:18:17.599Z,24.13
2022-11-30T08:18:59.288Z,25.27
2022-11-30T08:19:40.984Z,25.80
2022-11-30T08:20:23.204Z,25.90
2022-11-30T08:21:06.425Z,24.25
2022-11-30T08:21:48.059Z,25.13
2022-11-30T08:22:29.958Z,25.75
2022-11-30T08:23:12.385Z,24.70
2022-11-30T08:23:56.676Z,26.20
2022-11-30T08:24:38.393Z,25.23
2022-11-30T08:25:20.073Z,25.33
2022-11-30T08:26:07.247Z,25.38
2022-11-30T08:26:51.948Z,23.75
2022-11-30T08:27:33.591Z,25.58
2022-11-30T08:28:15.233Z,25.08
2022-11-30T08:28:58.337Z,25.20
2022-11-30T08:29:40.002Z,26.50
2022-11-30T08:30:23.473Z,26.98
2022-11-30T08:31:11.017Z,25.55
2022-11-30T08:31:52.875Z,26.48
2022-11-30T08:32:34.559Z,27.08
2022-11-30T08:33:16.373Z,26.77
2022-11-30T08:34:04.079Z,26.75
2022-11-30T08:34:46.857Z,25.45
2022-11-30T08:35:28.734Z,24.65
2022-11-30T08:36:13.544Z,24.58
2022-11-30T08:36:55.215Z,25.30
2022-11-30T08:37:37.898Z,25.90
2022-11-30T08:38:19.533Z,25.98
2022-11-30T08:39:02.942Z,25.08
2022-11-30T08:39:44.654Z,24.98
2022-11-30T08:40:26.313Z,27.13
2022-11-30T08:41:09.419Z,28.25
2022-11-30T08:41:52.969Z,27.15
2022-11-30T08:42:34.641Z,26.35
2022-11-30T08:43:16.272Z,27.67
2022-11-30T08:43:57.995Z,27.35
2022-11-30T08:44:39.796Z,27.15
2022-11-30T08:45:21.548Z,28.58
2022-11-30T08:46:21.226Z,27.73
2022-11-30T08:47:07.345Z,28.15
2022-11-30T08:47:49.053Z,25.58
2022-11-30T08:48:31.211Z,27.02
2022-11-30T08:49:22.023Z,27.58
2022-11-30T08:50:04.939Z,27.40
2022-11-30T08:50:46.600Z,27.83
2022-11-30T08:51:37.738Z,27.85
2022-11-30T08:52:29.424Z,29.52
2022-11-30T08:53:11.132Z,27.65
2022-11-30T08:53:52.808Z,26.80
2022-11-30T08:54:34.433Z,26.85
2022-11-30T08:55:16.145Z,26.40
2022-11-30T08:56:03.135Z,26.75
2022-11-30T08:56:44.872Z,26.42
2022-11-30T08:57:26.882Z,25.38
2022-11-30T08:58:08.995Z,26.48
2022-11-30T08:58:50.969Z,26.40
2022-11-30T08:59:32.707Z,26.48
2022-11-30T09:00:15.154Z,25.85
2022-11-30T09:01:06.307Z,26.40
2022-11-30T09:01:48.018Z,26.88
2022-11-30T09:02:29.781Z,26.40
2022-11-30T09:03:11.498Z,25.85
2022-11-30T09:03:55.381Z,25.80
2022-11-30T09:04:37.120Z,26.08
2022-11-30T09:05:18.958Z,26.20
2022-11-30T09:06:09.327Z,26.00
2022-11-30T09:06:51.003Z,25.65
2022-11-30T09:07:33.495Z,26.90
2022-11-30T09:08:15.300Z,26.15
2022-11-30T09:08:59.052Z,25.25
2022-11-30T09:09:40.714Z,24.30
2022-11-30T09:10:22.450Z,25.30
2022-11-30T09:11:12.173Z,25.70
2022-11-30T09:11:53.847Z,26.02
2022-11-30T09:12:37.128Z,25.55
2022-11-30T09:13:19.188Z,25.50
2022-11-30T09:14:04.133Z,25.20
2022-11-30T09:14:52.302Z,25.20
2022-11-30T09:15:37.794Z,25.17
2022-11-30T09:16:20.496Z,24.30
2022-11-30T09:17:02.812Z,24.65
2022-11-30T09:17:44.692Z,25.88
2022-11-30T09:18:26.375Z,25.23
2022-11-30T09:19:08.895Z,25.45